createdAt,value
2022-12-19T00:01:54.030Z,-5.42
2022-12-19T00:04:21.351Z,-5.44
2022-12-19T00:06:48.282Z,-5.31
2022-12-19T00:09:15.320Z,-5.32
2022-12-19T00:11:42.547Z,-5.38
2022-12-19T00:14:12.747Z,-5.26
2022-12-19T00:16:39.796Z,-5.30
2022-12-19T00:19:07.381Z,-5.39
2022-12-19T00:21:35.438Z,-5.28
2022-12-19T00:24:20.585Z,-5.38
2022-12-19T00:26:50.196Z,-5.42
2022-12-19T00:29:17.411Z,-5.37
2022-12-19T00:31:45.428Z,-5.29
2022-12-19T00:34:12.549Z,-5.37
2022-12-19T00:36:39.643Z,-5.31
2022-12-19T00:39:08.531Z,-5.11
2022-12-19T00:41:41.463Z,-5.21
2022-12-19T00:44:14.383Z,-5.20
2022-12-19T00:46:42.082Z,-5.02
2022-12-19T00:49:09.356Z,-4.84
2022-12-19T00:51:37.591Z,-5.18
2022-12-19T00:54:06.714Z,-5.23
2022-12-19T00:56:38.000Z,-5.32
2022-12-19T00:59:06.237Z,-5.29
2022-12-19T01:01:39.960Z,-5.22
2022-12-19T01:04:32.459Z,-5.28
2022-12-19T01:07:03.140Z,-5.00
2022-12-19T01:09:31.965Z,-5.25
2022-12-19T01:12:17.695Z,-5.28
2022-12-19T01:14:45.109Z,-5.35
2022-12-19T01:17:12.514Z,-5.26
2022-12-19T01:19:43.973Z,-5.26
2022-12-19T01:22:13.755Z,-5.18
2022-12-19T01:24:41.304Z,-5.11
2022-12-19T01:27:08.957Z,-5.20
2022-12-19T01:29:39.945Z,-5.37
2022-12-19T01:32:21.101Z,-5.32
2022-12-19T01:34:48.114Z,-5.29
2022-12-19T01:37:15.113Z,-5.27
2022-12-19T01:39:42.148Z,-5.29
2022-12-19T01:42:23.413Z,-5.13
2022-12-19T01:45:16.888Z,-5.24
2022-12-19T01:48:20.497Z,-5.39
2022-12-19T01:51:05.116Z,-5.33
2022-12-19T01:53:49.836Z,-5.33
2022-12-19T01:56:28.945Z,-5.37
2022-12-19T01:59:05.762Z,-5.18
2022-12-19T02:01:35.617Z,-5.54
2022-12-19T02:04:06.626Z,-5.34
2022-12-19T02:06:35.060Z,-5.20
2022-12-19T02:09:02.533Z,-5.24
2022-12-19T02:11:29.517Z,-5.13
2022-12-19T02:13:56.627Z,-5.27
2022-12-19T02:16:59.777Z,-5.22
2022-12-19T02:20:37.441Z,-5.10
2022-12-19T02:23:40.958Z,-5.25
2022-12-19T02:26:51.874Z,-5.39
2022-12-19T02:29:27.694Z,-5.27
2022-12-19T02:32:25.573Z,-5.33
2022-12-19T02:35:27.958Z,-5.41
2022-12-19T02:38:46.671Z,-5.33
2022-12-19T02:41:43.139Z,-5.38
2022-12-19T02:44:28.888Z,-5.48
2022-12-19T02:46:58.686Z,-5.46
2022-12-19T02:49:30.786Z,-5.44
2022-12-19T02:52:33.964Z,-5.48
2022-12-19T02:55:10.162Z,-5.52
2022-12-19T02:58:04.085Z,-5.44
2022-12-19T03:00:36.371Z,-5.60
2022-12-19T03:03:45.333Z,-5.75
2022-12-19T03:06:34.013Z,-5.67
2022-12-19T03:09:35.046Z,-5.67
2022-12-19T03:12:15.759Z,-5.64
2022-12-19T03:14:47.026Z,-5.72
2022-12-19T03:17:14.305Z,-5.68
2022-12-19T03:19:42.042Z,-5.70
2022-12-19T03:22:09.086Z,-5.70
2022-12-19T03:24:36.242Z,-5.51
2022-12-19T03:27:16.412Z,-5.66
2022-12-19T03:30:00.466Z,-5.64
2022-12-19T03:32:30.204Z,-5.63
2022-12-19T03:35:34.905Z,-5.68
2022-12-19T03:38:04.544Z,-5.57
2022-12-19T03:40:34.715Z,-5.80
2022-12-19T03:43:11.380Z,-5.77
2022-12-19T03:46:22.171Z,-5.63
2022-12-19T03:48:54.001Z,-5.68
2022-12-19T03:51:32.102Z,-5.74
2022-12-19T03:54:34.816Z,-5.70
2022-12-19T03:57:27.849Z,-5.80
2022-12-19T04:00:11.069Z,-5.77
2022-12-19T04:02:42.833Z,-5.85
2022-12-19T04:05:18.066Z,-5.87
2022-12-19T04:07:46.228Z,-5.75
2022-12-19T04:10:20.658Z,-5.60
2022-12-19T04:13:13.837Z,-5.66
2022-12-19T04:16:00.404Z,-5.57
2022-12-19T04:18:27.878Z,-5.64
2022-12-19T04:21:32.147Z,-5.49
2022-12-19T04:24:19.258Z,-5.39
2022-12-19T04:26:49.897Z,-5.38
2022-12-19T04:29:18.402Z,-5.52
2022-12-19T04:31:46.382Z,-5.33
2022-12-19T04:34:14.783Z,-5.38
2022-12-19T04:36:41.839Z,-5.36
2022-12-19T04:39:08.787Z,-5.16
2022-12-19T04:41:35.796Z,-5.23
2022-12-19T04:44:02.800Z,-5.44
2022-12-19T04:46:29.843Z,-5.44
2022-12-19T04:48:56.868Z,-5.47
2022-12-19T04:51:23.871Z,-5.31
2022-12-19T04:53:50.917Z,-5.31
2022-12-19T04:56:17.985Z,-5.34
2022-12-19T04:58:45.012Z,-5.36
2022-12-19T05:01:14.324Z,-5.45
2022-12-19T05:03:46.809Z,-5.27
2022-12-19T05:06:16.060Z,-5.27
2022-12-19T05:08:44.758Z,-5.23
2022-12-19T05:11:19.460Z,-4.89
2022-12-19T05:13:47.383Z,-4.84
2022-12-19T05:16:15.905Z,-4.77
2022-12-19T05:18:44.021Z,-4.74
2022-12-19T05:21:11.230Z,-4.76
2022-12-19T05:23:38.621Z,-4.57
2022-12-19T05:26:06.790Z,-4.67
2022-12-19T05:28:34.726Z,-4.53
2022-12-19T05:31:19.099Z,-4.48
2022-12-19T05:33:48.147Z,-4.57
2022-12-19T05:36:17.930Z,-4.42
2022-12-19T05:38:45.137Z,-4.43
2022-12-19T05:41:20.454Z,-4.37
2022-12-19T05:43:53.373Z,-4.32
2022-12-19T05:46:21.974Z,-4.52
2022-12-19T05:48:49.898Z,-4.25
2022-12-19T05:51:17.645Z,-4.10
2022-12-19T05:53:44.871Z,-4.10
2022-12-19T05:56:23.151Z,-4.05
2022-12-19T05:58:50.708Z,-4.01
2022-12-19T06:01:23.354Z,-3.90
2022-12-19T06:03:51.320Z,-3.98
2022-12-19T06:06:24.197Z,-3.86
2022-12-19T06:08:57.546Z,-3.92
2022-12-19T06:11:25.829Z,-3.75
2022-12-19T06:13:53.350Z,-3.82
2022-12-19T06:16:22.597Z,-3.63
2022-12-19T06:18:50.522Z,-3.66
2022-12-19T06:21:21.836Z,-4.18
2022-12-19T06:23:54.224Z,-3.58
2022-12-19T06:26:22.512Z,-3.77
2022-12-19T06:28:52.152Z,-3.58
2022-12-19T06:31:22.668Z,-3.89
2022-12-19T06:33:49.830Z,-3.62
2022-12-19T06:36:23.783Z,-3.57
2022-12-19T06:38:52.272Z,-3.50
2022-12-19T06:41:38.929Z,-3.42
2022-12-19T06:44:10.672Z,-3.40
2022-12-19T06:46:39.461Z,-3.34
2022-12-19T06:49:07.373Z,-3.30
2022-12-19T06:51:37.979Z,-3.26
2022-12-19T06:54:06.495Z,-3.41
2022-12-19T06:56:39.347Z,-3.48
2022-12-19T06:59:07.879Z,-3.34
2022-12-19T07:02:08.830Z,-3.42
2022-12-19T07:04:47.046Z,-3.16
2022-12-19T07:07:14.717Z,-3.08
2022-12-19T07:09:41.725Z,-3.08
2022-12-19T07:12:08.874Z,-3.19
2022-12-19T07:14:36.630Z,-2.98
2022-12-19T07:17:04.657Z,-3.04
2022-12-19T07:19:32.996Z,-3.02
2022-12-19T07:22:02.224Z,-3.12
2022-12-19T07:24:29.922Z,-2.92
2022-12-19T07:26:57.272Z,-2.80
2022-12-19T07:29:24.381Z,-2.89
2022-12-19T07:31:51.415Z,-2.78
2022-12-19T07:34:18.443Z,-2.85
2022-12-19T07:36:45.676Z,-2.88
2022-12-19T07:39:12.862Z,-2.82
2022-12-19T07:41:40.118Z,-2.85
2022-12-19T07:44:08.157Z,-2.69
2022-12-19T07:46:35.602Z,-2.58
2022-12-19T07:49:03.059Z,-2.59
2022-12-19T07:51:31.250Z,-2.53
2022-12-19T07:53:58.463Z,-2.59
2022-12-19T07:56:26.928Z,-2.64
2022-12-19T07:58:54.117Z,-2.84
2022-12-19T08:01:21.170Z,-2.61
2022-12-19T08:03:48.416Z,-2.44
2022-12-19T08:06:15.564Z,-2.33
2022-12-19T08:08:45.271Z,-2.57
2022-12-19T08:11:26.303Z,-2.46
2022-12-19T08:13:54.399Z,-2.27
2022-12-19T08:16:26.985Z,-2.24
2022-12-19T08:18:55.592Z,-2.17
2022-12-19T08:21:25.085Z,-2.21
2022-12-19T08:23:52.705Z,-1.97
2022-12-19T08:26:25.406Z,-2.11
2022-12-19T08:28:58.066Z,-1.98
2022-12-19T08:31:27.830Z,-1.85
2022-12-19T08:33:57.298Z,-2.00
2022-12-19T08:36:25.413Z,-1.93
2022-12-19T08:38:53.280Z,-1.80
2022-12-19T08:41:20.846Z,-1.81
2022-12-19T08:43:54.082Z,-1.94
2022-12-19T08:46:21.989Z,-1.68
2022-12-19T08:48:50.045Z,-1.56
2022-12-19T08:51:18.210Z,-1.64
2022-12-19T08:53:48.152Z,-1.39
2022-12-19T08:56:21.882Z,-1.58
2022-12-19T08:58:53.698Z,-1.62
2022-12-19T09:01:24.034Z,-1.42
2022-12-19T09:04:33.988Z,-1.41
2022-12-19T09:06:39.251Z,-1.30
2022-12-19T09:09:07.049Z,-1.31
2022-12-19T09:11:36.246Z,-1.49
2022-12-19T09:14:14.818Z,-1.18
2022-12-19T09:16:47.583Z,-1.35
2022-12-19T09:19:16.466Z,-1.21
2022-12-19T09:21:43.803Z,-1.11
2022-12-19T09:24:11.388Z,-1.04
2022-12-19T09:26:39.302Z,-1.06
2022-12-19T09:29:20.633Z,-0.99
2022-12-19T09:31:56.283Z,-1.11
2022-12-19T09:34:38.054Z,-1.08
2022-12-19T09:37:17.037Z,-0.81
2022-12-19T09:39:47.017Z,-0.88
2022-12-19T09:42:52.212Z,-0.67
2022-12-19T09:45:38.343Z,-0.54
2022-12-19T09:48:23.594Z,-0.66
2022-12-19T09:51:12.455Z,-0.58
2022-12-19T09:53:58.325Z,-0.41
2022-12-19T09:56:45.842Z,-0.29
2022-12-19T09:59:52.372Z,-0.31
2022-12-19T10:02:50.552Z,-0.21
2022-12-19T10:06:55.876Z,-0.18
2022-12-19T10:09:16.687Z,-0.10
2022-12-19T10:12:47.935Z,-0.13
2022-12-19T10:15:21.673Z,-0.16
2022-12-19T10:18:01.739Z,-0.05
2022-12-19T10:20:46.778Z,-0.12
2022-12-19T10:23:45.897Z,-0.14
2022-12-19T10:26:30.692Z,0.15
2022-12-19T10:29:16.951Z,0.25
2022-12-19T10:32:23.282Z,0.28
2022-12-19T10:34:51.903Z,0.18
2022-12-19T10:37:45.584Z,0.46
2022-12-19T10:40:59.184Z,0.44
2022-12-19T10:44:07.265Z,0.41
2022-12-19T10:46:51.523Z,0.53
2022-12-19T10:49:26.588Z,0.84
2022-12-19T10:51:56.463Z,0.69
2022-12-19T10:54:39.702Z,0.84
2022-12-19T10:57:22.634Z,0.92
2022-12-19T11:00:32.885Z,0.98
2022-12-19T11:03:19.021Z,1.16
2022-12-19T11:05:58.672Z,1.00
2022-12-19T11:08:37.536Z,1.12
2022-12-19T11:13:30.091Z,1.18
2022-12-19T11:18:29.553Z,1.17
2022-12-19T11:22:41.245Z,0.97
2022-12-19T11:29:17.677Z,1.04
2022-12-19T11:29:40.173Z,0.92
2022-12-19T11:30:41.736Z,0.99
2022-12-19T11:30:46.945Z,1.20
2022-12-19T11:32:31.906Z,1.02
2022-12-19T11:34:23.805Z,1.10
2022-12-19T11:37:19.739Z,1.17
2022-12-19T11:40:01.898Z,1.04
2022-12-19T11:43:11.019Z,1.18
2022-12-19T11:45:52.557Z,1.21
2022-12-19T11:48:36.293Z,1.24
2022-12-19T11:51:40.308Z,1.23
2022-12-19T11:54:41.857Z,1.19
2022-12-19T11:57:12.927Z,1.18
2022-12-19T11:59:41.030Z,1.07
2022-12-19T12:02:49.575Z,1.10
2022-12-19T12:05:46.620Z,1.07
2022-12-19T12:10:48.594Z,1.04
2022-12-19T12:18:22.126Z,1.28
2022-12-19T12:24:44.245Z,1.10
2022-12-19T12:31:01.284Z,1.14
2022-12-19T12:31:05.950Z,1.11
2022-12-19T12:32:03.191Z,1.09
2022-12-19T12:32:06.049Z,1.17
2022-12-19T12:35:46.737Z,1.10
2022-12-19T12:38:49.233Z,1.17
2022-12-19T12:42:19.877Z,1.22
2022-12-19T12:44:50.415Z,1.07
2022-12-19T12:47:36.245Z,1.16
2022-12-19T12:50:17.114Z,1.05
2022-12-19T12:52:50.717Z,1.05
2022-12-19T12:55:43.382Z,1.00
2022-12-19T12:58:53.857Z,1.02
2022-12-19T13:01:41.031Z,1.00
2022-12-19T13:04:10.896Z,0.99
2022-12-19T13:06:52.427Z,1.10
2022-12-19T13:09:35.335Z,1.03
2022-12-19T13:13:01.246Z,1.10
2022-12-19T13:15:28.147Z,1.03
2022-12-19T13:17:55.051Z,1.06
2022-12-19T13:20:26.566Z,1.16
2022-12-19T13:23:00.897Z,1.25
2022-12-19T13:25:51.016Z,1.17
2022-12-19T13:28:23.990Z,1.11
2022-12-19T13:31:19.106Z,1.24
2022-12-19T13:34:00.910Z,1.22
2022-12-19T13:39:56.172Z,1.30
2022-12-19T13:40:08.750Z,1.23
2022-12-19T13:43:10.881Z,1.16
2022-12-19T13:45:47.803Z,1.28
2022-12-19T13:48:34.382Z,1.20
2022-12-19T13:51:11.452Z,1.23
2022-12-19T13:53:40.119Z,1.32
2022-12-19T13:56:18.180Z,1.19
2022-12-19T13:58:59.624Z,1.33
2022-12-19T14:01:33.786Z,1.43
2022-12-19T14:04:26.119Z,1.36
2022-12-19T14:07:06.677Z,1.43
2022-12-19T14:11:32.544Z,1.44
2022-12-19T14:13:46.557Z,1.50
2022-12-19T14:15:52.120Z,1.52
2022-12-19T14:18:42.588Z,1.43
2022-12-19T14:22:09.801Z,1.53
2022-12-19T14:24:25.247Z,1.46
2022-12-19T14:28:24.405Z,1.44
2022-12-19T14:30:27.881Z,1.48
2022-12-19T14:33:44.715Z,1.54
2022-12-19T14:36:10.007Z,1.47
2022-12-19T14:39:22.761Z,1.56
2022-12-19T14:42:04.302Z,1.53
2022-12-19T14:52:25.213Z,1.52
2022-12-19T14:53:52.025Z,1.54
2022-12-19T14:54:35.862Z,1.57
2022-12-19T14:57:25.322Z,1.71
2022-12-19T15:01:07.276Z,1.68
2022-12-19T15:03:35.879Z,1.75
2022-12-19T15:06:32.164Z,1.85
2022-12-19T15:10:59.862Z,1.80
2022-12-19T15:14:20.715Z,1.87
2022-12-19T15:15:37.330Z,1.94
2022-12-19T15:18:23.328Z,1.96
2022-12-19T15:20:57.354Z,2.06
2022-12-19T15:23:25.743Z,2.04
2022-12-19T15:26:04.448Z,2.06
2022-12-19T15:28:56.158Z,2.15
2022-12-19T15:31:42.730Z,2.15
2022-12-19T15:34:41.927Z,2.21
2022-12-19T15:37:16.462Z,2.28
2022-12-19T15:39:45.179Z,2.29
2022-12-19T15:42:22.914Z,2.40
2022-12-19T15:44:52.109Z,2.29
2022-12-19T15:47:36.389Z,2.38
2022-12-19T15:50:21.081Z,2.46
2022-12-19T15:52:49.064Z,2.49
2022-12-19T15:55:22.673Z,2.41
2022-12-19T15:58:01.287Z,2.49
2022-12-19T16:00:34.873Z,2.59
2022-12-19T16:05:49.434Z,2.59
2022-12-19T16:08:22.996Z,2.64
2022-12-19T16:11:01.129Z,2.69
2022-12-19T16:13:34.725Z,2.69
2022-12-19T16:16:06.544Z,2.75
2022-12-19T16:18:40.663Z,2.71
2022-12-19T16:21:20.706Z,2.73
2022-12-19T16:23:48.091Z,2.75
2022-12-19T16:26:37.664Z,2.80
2022-12-19T16:29:06.419Z,2.76
2022-12-19T16:31:33.436Z,2.79
2022-12-19T16:34:02.294Z,2.81
2022-12-19T16:36:29.283Z,2.78
2022-12-19T16:38:56.302Z,2.88
2022-12-19T16:41:25.406Z,2.79
2022-12-19T16:43:53.360Z,2.81
2022-12-19T16:46:23.953Z,2.91
2022-12-19T16:48:51.112Z,2.81
2022-12-19T16:51:25.111Z,2.88
2022-12-19T16:53:57.887Z,2.87
2022-12-19T16:56:35.310Z,2.81
2022-12-19T16:59:12.583Z,2.83
2022-12-19T17:01:42.960Z,2.87
2022-12-19T17:04:19.612Z,2.85
2022-12-19T17:06:47.107Z,2.94
2022-12-19T17:09:18.502Z,2.96
2022-12-19T17:11:59.768Z,2.96
2022-12-19T17:14:31.892Z,2.98
2022-12-19T17:17:00.034Z,3.01
2022-12-19T17:19:41.722Z,2.99
2022-12-19T17:22:19.077Z,3.02
2022-12-19T17:24:48.617Z,3.04
2022-12-19T17:27:18.694Z,3.02
2022-12-19T17:29:47.083Z,3.07
2022-12-19T17:32:23.577Z,3.08
2022-12-19T17:34:52.220Z,3.10
2022-12-19T17:37:19.209Z,3.10
2022-12-19T17:39:46.163Z,3.10
2022-12-19T17:42:22.522Z,3.03
2022-12-19T17:44:49.770Z,3.10
2022-12-19T17:47:20.350Z,3.14
2022-12-19T17:49:48.456Z,3.15
2022-12-19T17:52:19.541Z,3.08
2022-12-19T17:54:46.890Z,3.16
2022-12-19T17:57:16.804Z,3.16
2022-12-19T17:59:46.217Z,3.16
2022-12-19T18:02:26.291Z,3.21
2022-12-19T18:04:53.909Z,3.08
2022-12-19T18:07:21.284Z,3.15
2022-12-19T18:09:48.471Z,3.32
2022-12-19T18:12:15.651Z,3.33
2022-12-19T18:14:42.657Z,3.35
2022-12-19T18:17:15.761Z,3.34
2022-12-19T18:19:42.865Z,3.36
2022-12-19T18:22:14.445Z,3.35
2022-12-19T18:24:41.771Z,3.35
2022-12-19T18:27:08.855Z,3.38
2022-12-19T18:29:35.905Z,3.42
2022-12-19T18:32:03.273Z,3.42
2022-12-19T18:34:33.251Z,3.37
2022-12-19T18:37:00.286Z,3.47
2022-12-19T18:39:29.252Z,3.39
2022-12-19T18:41:56.351Z,3.48
2022-12-19T18:44:23.643Z,3.50
2022-12-19T18:46:51.860Z,3.53
2022-12-19T18:49:19.396Z,3.51
2022-12-19T18:51:47.083Z,3.57
2022-12-19T18:54:22.301Z,3.50
2022-12-19T18:56:49.808Z,3.49
2022-12-19T18:59:16.945Z,3.57
2022-12-19T19:01:47.356Z,3.59
2022-12-19T19:04:17.864Z,3.63
2022-12-19T19:06:51.055Z,3.62
2022-12-19T19:09:20.388Z,3.63
2022-12-19T19:11:47.664Z,3.63
2022-12-19T19:14:14.768Z,3.62
2022-12-19T19:16:41.928Z,3.62
2022-12-19T19:19:17.432Z,3.59
2022-12-19T19:21:44.864Z,3.64
2022-12-19T19:24:20.757Z,3.63
2022-12-19T19:26:54.009Z,3.63
2022-12-19T19:29:21.131Z,3.58
2022-12-19T19:31:51.854Z,3.64
2022-12-19T19:34:34.480Z,3.62
2022-12-19T19:37:08.084Z,3.70
2022-12-19T19:39:35.655Z,3.66
2022-12-19T19:42:03.180Z,3.56
2022-12-19T19:44:30.286Z,3.58
2022-12-19T19:46:57.526Z,3.56
2022-12-19T19:49:24.657Z,3.64
2022-12-19T19:51:56.866Z,3.69
2022-12-19T19:54:27.535Z,3.69
2022-12-19T19:56:55.776Z,3.65
2022-12-19T19:59:22.771Z,3.65
2022-12-19T20:01:54.141Z,3.70
2022-12-19T20:04:21.563Z,3.69
2022-12-19T20:06:51.732Z,3.65
2022-12-19T20:09:27.797Z,3.72
2022-12-19T20:11:56.563Z,3.73
2022-12-19T20:14:26.665Z,3.68
2022-12-19T20:16:54.387Z,3.67
2022-12-19T20:19:21.378Z,3.63
2022-12-19T20:21:48.533Z,3.62
2022-12-19T20:24:15.589Z,3.67
2022-12-19T20:26:42.725Z,3.60
2022-12-19T20:29:11.445Z,3.52
2022-12-19T20:31:39.555Z,3.55
2022-12-19T20:34:06.772Z,3.54
2022-12-19T20:36:34.606Z,3.59
2022-12-19T20:39:01.749Z,3.54
2022-12-19T20:41:28.769Z,3.50
2022-12-19T20:43:56.440Z,3.49
2022-12-19T20:46:23.814Z,3.45
2022-12-19T20:48:51.971Z,3.39
2022-12-19T20:51:21.683Z,3.41
2022-12-19T20:53:51.449Z,3.42
2022-12-19T20:56:20.524Z,3.43
2022-12-19T20:58:47.509Z,3.46
2022-12-19T21:01:22.295Z,3.43
2022-12-19T21:03:50.758Z,3.36
2022-12-19T21:06:21.055Z,3.34
2022-12-19T21:08:48.455Z,3.36
2022-12-19T21:11:15.759Z,3.20
2022-12-19T21:13:43.508Z,3.30
2022-12-19T21:16:17.852Z,3.30
2022-12-19T21:18:48.971Z,3.33
2022-12-19T21:21:25.245Z,3.29
2022-12-19T21:23:54.455Z,3.28
2022-12-19T21:26:23.819Z,3.18
2022-12-19T21:28:51.287Z,3.21
2022-12-19T21:31:26.336Z,3.18
2022-12-19T21:34:02.260Z,3.19
2022-12-19T21:36:31.343Z,3.19
2022-12-19T21:39:01.831Z,3.16
2022-12-19T21:41:29.811Z,3.17
2022-12-19T21:43:57.882Z,3.07
2022-12-19T21:46:34.983Z,3.03
2022-12-19T21:49:03.198Z,3.02
2022-12-19T21:51:32.232Z,3.05
2022-12-19T21:54:03.191Z,2.93
2022-12-19T21:56:39.751Z,3.01
2022-12-19T21:59:14.857Z,3.07
2022-12-19T22:01:44.318Z,3.04
2022-12-19T22:04:23.758Z,3.04
2022-12-19T22:06:52.087Z,3.11
2022-12-19T22:09:23.847Z,3.09
2022-12-19T22:11:51.614Z,3.22
2022-12-19T22:14:18.811Z,3.20
2022-12-19T22:16:45.959Z,3.24
2022-12-19T22:19:17.346Z,3.16
2022-12-19T22:21:46.595Z,3.09
2022-12-19T22:24:16.245Z,3.20
2022-12-19T22:26:43.963Z,3.20
2022-12-19T22:29:15.864Z,3.22
2022-12-19T22:31:44.346Z,3.23
2022-12-19T22:34:17.940Z,3.27
2022-12-19T22:36:45.940Z,3.28
2022-12-19T22:39:17.912Z,3.33
2022-12-19T22:41:45.370Z,3.31
2022-12-19T22:44:23.499Z,3.29
2022-12-19T22:46:51.749Z,3.36
2022-12-19T22:49:18.847Z,3.33
2022-12-19T22:51:46.313Z,3.35
2022-12-19T22:54:14.032Z,3.36
2022-12-19T22:56:41.964Z,3.39
2022-12-19T22:59:11.912Z,3.43
2022-12-19T23:01:43.324Z,3.38
2022-12-19T23:04:15.098Z,3.42
2022-12-19T23:06:42.984Z,3.48
2022-12-19T23:09:15.986Z,3.47
2022-12-19T23:11:47.678Z,3.49
2022-12-19T23:14:18.209Z,3.45
2022-12-19T23:16:45.964Z,3.48
2022-12-19T23:19:16.162Z,3.47
2022-12-19T23:21:43.195Z,3.52
2022-12-19T23:24:10.783Z,3.47
2022-12-19T23:26:38.288Z,3.51
2022-12-19T23:29:13.925Z,3.59
2022-12-19T23:31:45.503Z,3.52
2022-12-19T23:34:16.118Z,3.48
2022-12-19T23:39:30.484Z,3.57
2022-12-19T23:41:57.492Z,3.59
2022-12-19T23:44:24.760Z,3.57
2022-12-19T23:46:51.851Z,3.51
2022-12-19T23:49:18.896Z,3.50
2022-12-19T23:51:45.884Z,3.60
2022-12-19T23:54:12.887Z,3.56
2022-12-19T23:56:39.941Z,3.49
2022-12-19T23:59:07.288Z,3.62
